sensor_id;sensor_type;location;lat;lon;timestamp;pressure;altitude;pressure_sealevel;temperature;humidity
70954;BME280;58618;47.490;8.736;2023-04-08T00:01:10;96784.88;;;5.38;100.00
70954;BME280;58618;47.490;8.736;2023-04-08T00:03:58;96781.41;;;5.44;100.00
70954;BME280;58618;47.490;8.736;2023-04-08T00:06:45;96778.44;;;5.52;100.00
70954;BME280;58618;47.490;8.736;2023-04-08T00:09:32;96787.25;;;5.45;100.00
70954;BME280;58618;47.490;8.736;2023-04-08T00:12:20;96788.88;;;5.34;100.00
70954;BME280;58618;47.490;8.736;2023-04-08T00:15:09;96786.81;;;5.31;100.00
70954;BME280;58618;47.490;8.736;2023-04-08T00:17:56;96782.09;;;5.23;100.00
70954;BME280;58618;47.490;8.736;2023-04-08T00:20:44;96784.63;;;5.23;100.00
70954;BME280;58618;47.490;8.736;2023-04-08T00:23:31;96781.59;;;5.26;100.00
70954;BME280;58618;47.490;8.736;2023-04-08T00:26:18;96782.47;;;5.48;100.00
70954;BME280;58618;47.490;8.736;2023-04-08T00:29:06;96778.91;;;5.49;100.00
70954;BME280;58618;47.490;8.736;2023-04-08T00:31:55;96786.13;;;5.52;100.00
70954;BME280;58618;47.490;8.736;2023-04-08T00:34:42;96777.50;;;5.59;100.00
70954;BME280;58618;47.490;8.736;2023-04-08T00:37:29;96784.34;;;5.70;100.00
70954;BME280;58618;47.490;8.736;2023-04-08T00:40:17;96784.84;;;5.72;100.00
70954;BME280;58618;47.490;8.736;2023-04-08T00:43:05;96783.25;;;5.32;100.00
70954;BME280;58618;47.490;8.736;2023-04-08T00:45:52;96781.81;;;5.08;100.00
70954;BME280;58618;47.490;8.736;2023-04-08T00:48:41;96783.19;;;4.99;100.00
70954;BME280;58618;47.490;8.736;2023-04-08T00:51:29;96787.78;;;4.97;100.00
70954;BME280;58618;47.490;8.736;2023-04-08T00:54:17;96784.44;;;4.96;100.00
70954;BME280;58618;47.490;8.736;2023-04-08T00:57:05;96781.19;;;5.01;100.00
70954;BME280;58618;47.490;8.736;2023-04-08T00:59:53;96770.22;;;5.17;100.00
70954;BME280;58618;47.490;8.736;2023-04-08T01:02:44;96772.84;;;5.22;100.00
70954;BME280;58618;47.490;8.736;2023-04-08T01:05:41;96762.22;;;4.97;100.00
70954;BME280;58618;47.490;8.736;2023-04-08T01:08:32;96769.09;;;4.96;100.00
70954;BME280;58618;47.490;8.736;2023-04-08T01:11:22;96771.28;;;4.76;100.00
70954;BME280;58618;47.490;8.736;2023-04-08T01:14:16;96773.38;;;4.79;100.00
70954;BME280;58618;47.490;8.736;2023-04-08T01:17:05;96777.50;;;4.80;100.00
70954;BME280;58618;47.490;8.736;2023-04-08T01:19:53;96779.09;;;4.70;100.00
70954;BME280;58618;47.490;8.736;2023-04-08T01:22:54;96779.72;;;4.77;100.00
70954;BME280;58618;47.490;8.736;2023-04-08T01:25:46;96773.63;;;4.49;100.00
70954;BME280;58618;47.490;8.736;2023-04-08T01:28:35;96774.84;;;4.35;100.00
70954;BME280;58618;47.490;8.736;2023-04-08T01:31:24;96781.22;;;4.21;100.00
70954;BME280;58618;47.490;8.736;2023-04-08T01:34:13;96777.00;;;4.27;100.00
70954;BME280;58618;47.490;8.736;2023-04-08T01:37:02;96781.53;;;4.24;100.00
70954;BME280;58618;47.490;8.736;2023-04-08T01:39:51;96780.91;;;4.17;100.00
70954;BME280;58618;47.490;8.736;2023-04-08T01:42:41;96771.44;;;4.18;100.00
70954;BME280;58618;47.490;8.736;2023-04-08T01:45:30;96776.09;;;4.21;100.00
70954;BME280;58618;47.490;8.736;2023-04-08T01:48:17;96772.56;;;4.22;100.00
70954;BME280;58618;47.490;8.736;2023-04-08T01:51:05;96778.56;;;4.16;100.00
70954;BME280;58618;47.490;8.736;2023-04-08T01:53:53;96778.47;;;4.11;100.00
70954;BME280;58618;47.490;8.736;2023-04-08T01:56:41;96778.88;;;4.19;100.00
70954;BME280;58618;47.490;8.736;2023-04-08T01:59:34;96770.94;;;4.44;100.00
70954;BME280;58618;47.490;8.736;2023-04-08T02:02:24;96774.25;;;4.56;100.00
70954;BME280;58618;47.490;8.736;2023-04-08T02:05:12;96774.31;;;4.33;100.00
70954;BME280;58618;47.490;8.736;2023-04-08T02:07:59;96772.56;;;4.22;100.00
70954;BME280;58618;47.490;8.736;2023-04-08T02:10:47;96779.19;;;4.23;100.00
70954;BME280;58618;47.490;8.736;2023-04-08T02:13:34;96773.75;;;4.31;100.00
70954;BME280;58618;47.490;8.736;2023-04-08T02:16:30;96765.28;;;4.54;100.00
70954;BME280;58618;47.490;8.736;2023-04-08T02:19:24;96772.25;;;4.58;100.00
70954;BME280;58618;47.490;8.736;2023-04-08T02:22:18;96778.91;;;4.59;100.00
70954;BME280;58618;47.490;8.736;2023-04-08T02:25:14;96781.38;;;4.54;100.00
70954;BME280;58618;47.490;8.736;2023-04-08T02:28:03;96779.09;;;4.70;100.00
70954;BME280;58618;47.490;8.736;2023-04-08T02:30:53;96782.00;;;4.90;100.00
70954;BME280;58618;47.490;8.736;2023-04-08T02:33:42;96781.47;;;4.88;100.00
70954;BME280;58618;47.490;8.736;2023-04-08T02:36:31;96785.00;;;4.87;100.00
70954;BME280;58618;47.490;8.736;2023-04-08T02:39:21;96782.88;;;4.95;100.00
70954;BME280;58618;47.490;8.736;2023-04-08T02:42:16;96783.66;;;4.96;100.00
70954;BME280;58618;47.490;8.736;2023-04-08T02:45:04;96787.09;;;5.01;100.00
70954;BME280;58618;47.490;8.736;2023-04-08T02:47:51;96787.47;;;4.82;100.00
70954;BME280;58618;47.490;8.736;2023-04-08T02:50:40;96788.25;;;4.82;100.00
70954;BME280;58618;47.490;8.736;2023-04-08T02:53:27;96791.50;;;4.78;100.00
70954;BME280;58618;47.490;8.736;2023-04-08T02:56:15;96781.84;;;4.80;100.00
70954;BME280;58618;47.490;8.736;2023-04-08T02:59:02;96790.41;;;4.74;100.00
70954;BME280;58618;47.490;8.736;2023-04-08T03:01:50;96788.66;;;4.62;100.00
70954;BME280;58618;47.490;8.736;2023-04-08T03:04:37;96783.09;;;4.65;100.00
70954;BME280;58618;47.490;8.736;2023-04-08T03:07:26;96782.19;;;4.72;100.00
70954;BME280;58618;47.490;8.736;2023-04-08T03:10:30;96783.75;;;4.73;100.00
70954;BME280;58618;47.490;8.736;2023-04-08T03:13:40;96788.41;;;4.76;100.00
70954;BME280;58618;47.490;8.736;2023-04-08T03:16:27;96779.16;;;4.86;100.00
70954;BME280;58618;47.490;8.736;2023-04-08T03:19:14;96779.00;;;4.93;100.00
70954;BME280;58618;47.490;8.736;2023-04-08T03:22:02;96785.66;;;4.94;100.00
70954;BME280;58618;47.490;8.736;2023-04-08T03:24:50;96786.91;;;4.91;100.00
70954;BME280;58618;47.490;8.736;2023-04-08T03:27:38;96781.38;;;4.83;100.00
70954;BME280;58618;47.490;8.736;2023-04-08T03:30:25;96786.16;;;5.07;100.00
70954;BME280;58618;47.490;8.736;2023-04-08T03:33:12;96789.84;;;5.28;100.00
70954;BME280;58618;47.490;8.736;2023-04-08T03:36:00;96793.75;;;5.19;100.00
70954;BME280;58618;47.490;8.736;2023-04-08T03:38:47;96784.19;;;4.98;100.00
70954;BME280;58618;47.490;8.736;2023-04-08T03:41:36;96799.31;;;4.99;100.00
70954;BME280;58618;47.490;8.736;2023-04-08T03:44:23;96797.88;;;4.92;100.00
70954;BME280;58618;47.490;8.736;2023-04-08T03:47:10;96797.13;;;4.91;100.00
70954;BME280;58618;47.490;8.736;2023-04-08T03:49:58;96804.88;;;4.96;100.00
70954;BME280;58618;47.490;8.736;2023-04-08T03:52:45;96792.66;;;5.15;100.00
70954;BME280;58618;47.490;8.736;2023-04-08T03:55:32;96797.78;;;5.15;100.00
70954;BME280;58618;47.490;8.736;2023-04-08T03:58:21;96799.00;;;4.96;100.00
70954;BME280;58618;47.490;8.736;2023-04-08T04:01:09;96798.81;;;4.86;100.00
70954;BME280;58618;47.490;8.736;2023-04-08T04:03:56;96795.22;;;4.87;100.00
70954;BME280;58618;47.490;8.736;2023-04-08T04:06:43;96796.47;;;4.84;100.00
70954;BME280;58618;47.490;8.736;2023-04-08T04:09:31;96790.81;;;4.82;100.00
70954;BME280;58618;47.490;8.736;2023-04-08T04:12:18;96782.75;;;5.02;100.00
70954;BME280;58618;47.490;8.736;2023-04-08T04:15:09;96796.22;;;5.14;100.00
70954;BME280;58618;47.490;8.736;2023-04-08T04:17:56;96793.28;;;5.05;100.00
70954;BME280;58618;47.490;8.736;2023-04-08T04:20:43;96789.69;;;4.90;100.00
70954;BME280;58618;47.490;8.736;2023-04-08T04:23:31;96795.22;;;4.87;100.00
70954;BME280;58618;47.490;8.736;2023-04-08T04:26:18;96792.59;;;4.82;100.00
70954;BME280;58618;47.490;8.736;2023-04-08T04:29:06;96797.44;;;4.95;100.00
70954;BME280;58618;47.490;8.736;2023-04-08T04:31:54;96793.13;;;5.12;100.00
70954;BME280;58618;47.490;8.736;2023-04-08T04:34:42;96793.91;;;5.29;100.00
70954;BME280;58618;47.490;8.736;2023-04-08T04:37:29;96772.59;;;5.07;100.00
70954;BME280;58618;47.490;8.736;2023-04-08T04:40:17;96791.75;;;5.21;100.00
70954;BME280;58618;47.490;8.736;2023-04-08T04:43:04;96798.09;;;5.02;100.00
70954;BME280;58618;47.490;8.736;2023-04-08T04:45:52;96803.78;;;4.92;100.00
70954;BME280;58618;47.490;8.736;2023-04-08T04:48:41;96809.66;;;4.93;100.00
70954;BME280;58618;47.490;8.736;2023-04-08T04:51:30;96804.38;;;5.11;100.00
70954;BME280;58618;47.490;8.736;2023-04-08T04:54:17;96807.38;;;5.08;100.00
70954;BME280;58618;47.490;8.736;2023-04-08T04:57:04;96818.72;;;5.12;100.00
70954;BME280;58618;47.490;8.736;2023-04-08T04:59:52;96819.63;;;5.06;100.00
70954;BME280;58618;47.490;8.736;2023-04-08T05:02:39;96817.16;;;5.11;100.00
70954;BME280;58618;47.490;8.736;2023-04-08T05:05:28;96828.28;;;5.05;100.00
70954;BME280;58618;47.490;8.736;2023-04-08T05:08:15;96826.47;;;5.17;100.00
70954;BME280;58618;47.490;8.736;2023-04-08T05:11:03;96830.34;;;5.36;100.00
70954;BME280;58618;47.490;8.736;2023-04-08T05:13:50;96831.34;;;5.35;100.00
70954;BME280;58618;47.490;8.736;2023-04-08T05:16:37;96822.31;;;5.28;100.00
70954;BME280;58618;47.490;8.736;2023-04-08T05:19:25;96834.69;;;5.36;100.00
70954;BME280;58618;47.490;8.736;2023-04-08T05:22:14;96844.78;;;5.42;100.00
70954;BME280;58618;47.490;8.736;2023-04-08T05:25:01;96829.59;;;5.52;100.00
70954;BME280;58618;47.490;8.736;2023-04-08T05:27:51;96844.97;;;5.52;100.00
70954;BME280;58618;47.490;8.736;2023-04-08T05:30:38;96833.78;;;5.42;100.00
70954;BME280;58618;47.490;8.736;2023-04-08T05:33:26;96845.94;;;5.35;100.00
70954;BME280;58618;47.490;8.736;2023-04-08T05:36:14;96853.94;;;5.38;100.00
70954;BME280;58618;47.490;8.736;2023-04-08T05:39:03;96852.41;;;5.54;100.00
70954;BME280;58618;47.490;8.736;2023-04-08T05:41:50;96857.09;;;5.45;100.00
70954;BME280;58618;47.490;8.736;2023-04-08T05:44:37;96860.78;;;5.49;100.00
70954;BME280;58618;47.490;8.736;2023-04-08T05:47:26;96856.88;;;5.47;100.00
70954;BME280;58618;47.490;8.736;2023-04-08T05:50:13;96860.94;;;5.60;100.00
70954;BME280;58618;47.490;8.736;2023-04-08T05:53:01;96865.81;;;5.78;100.00
70954;BME280;58618;47.490;8.736;2023-04-08T05:55:49;96859.53;;;5.69;100.00
70954;BME280;58618;47.490;8.736;2023-04-08T05:58:37;96854.72;;;5.56;100.00
70954;BME280;58618;47.490;8.736;2023-04-08T06:01:24;96863.59;;;5.65;100.00
70954;BME280;58618;47.490;8.736;2023-04-08T06:04:11;96862.31;;;5.67;100.00
70954;BME280;58618;47.490;8.736;2023-04-08T06:06:59;96864.66;;;5.69;100.00
70954;BME280;58618;47.490;8.736;2023-04-08T06:09:47;96868.38;;;5.78;100.00
70954;BME280;58618;47.490;8.736;2023-04-08T06:12:36;96864.06;;;5.95;100.00
70954;BME280;58618;47.490;8.736;2023-04-08T06:15:24;96870.34;;;6.04;100.00
70954;BME280;58618;47.490;8.736;2023-04-08T06:18:12;96871.00;;;6.50;100.00
70954;BME280;58618;47.490;8.736;2023-04-08T06:21:00;96869.03;;;7.00;100.00
70954;BME280;58618;47.490;8.736;2023-04-08T06:23:47;96875.44;;;7.51;100.00
70954;BME280;58618;47.490;8.736;2023-04-08T06:26:34;96873.63;;;7.25;100.00
70954;BME280;58618;47.490;8.736;2023-04-08T06:29:23;96877.25;;;7.24;100.00
70954;BME280;58618;47.490;8.736;2023-04-08T06:32:11;96870.25;;;7.19;100.00
70954;BME280;58618;47.490;8.736;2023-04-08T06:34:58;96872.53;;;7.43;100.00
70954;BME280;58618;47.490;8.736;2023-04-08T06:37:45;96873.72;;;7.62;98.34
70954;BME280;58618;47.490;8.736;2023-04-08T06:40:33;96873.09;;;8.09;95.80
70954;BME280;58618;47.490;8.736;2023-04-08T06:43:20;96875.25;;;8.74;92.42
70954;BME280;58618;47.490;8.736;2023-04-08T06:46:09;96863.06;;;9.16;89.34
70954;BME280;58618;47.490;8.736;2023-04-08T06:48:56;96873.16;;;9.79;84.98
70954;BME280;58618;47.490;8.736;2023-04-08T06:51:44;96872.66;;;10.07;84.72
70954;BME280;58618;47.490;8.736;2023-04-08T06:54:31;96874.19;;;10.08;84.69
70954;BME280;58618;47.490;8.736;2023-04-08T06:57:18;96866.97;;;10.00;83.58
70954;BME280;58618;47.490;8.736;2023-04-08T07:00:07;96871.09;;;10.46;80.72
70954;BME280;58618;47.490;8.736;2023-04-08T07:02:56;96877.22;;;10.61;79.75
70954;BME280;58618;47.490;8.736;2023-04-08T07:05:43;96876.69;;;10.64;78.14
70954;BME280;58618;47.490;8.736;2023-04-08T07:08:31;96868.50;;;10.31;78.93
70954;BME280;58618;47.490;8.736;2023-04-08T07:11:18;96881.44;;;9.75;83.04
70954;BME280;58618;47.490;8.736;2023-04-08T07:14:06;96877.56;;;9.98;81.90
70954;BME280;58618;47.490;8.736;2023-04-08T07:16:53;96870.59;;;9.79;82.24
70954;BME280;58618;47.490;8.736;2023-04-08T07:19:42;96874.09;;;9.12;86.36
70954;BME280;58618;47.490;8.736;2023-04-08T07:22:30;96877.97;;;9.09;88.86
70954;BME280;58618;47.490;8.736;2023-04-08T07:25:17;96887.66;;;8.87;89.39
70954;BME280;58618;47.490;8.736;2023-04-08T07:28:04;96882.41;;;9.29;88.37
70954;BME280;58618;47.490;8.736;2023-04-08T07:30:52;96876.59;;;8.86;90.22
70954;BME280;58618;47.490;8.736;2023-04-08T07:33:39;96881.06;;;9.21;89.34
70954;BME280;58618;47.490;8.736;2023-04-08T07:36:28;96880.66;;;9.90;85.45
70954;BME280;58618;47.490;8.736;2023-04-08T07:39:15;96882.91;;;10.63;81.49
70954;BME280;58618;47.490;8.736;2023-04-08T07:42:03;96889.00;;;10.87;79.66
70954;BME280;58618;47.490;8.736;2023-04-08T07:44:50;96889.44;;;10.25;80.43
70954;BME280;58618;47.490;8.736;2023-04-08T07:47:38;96889.16;;;10.01;82.79
70954;BME280;58618;47.490;8.736;2023-04-08T07:50:25;96881.88;;;10.53;79.77
70954;BME280;58618;47.490;8.736;2023-04-08T07:53:14;96894.28;;;10.06;81.78
70954;BME280;58618;47.490;8.736;2023-04-08T07:56:01;96890.19;;;10.40;81.93
70954;BME280;58618;47.490;8.736;2023-04-08T07:58:49;96894.28;;;10.11;83.68
70954;BME280;58618;47.490;8.736;2023-04-08T08:01:37;96894.56;;;10.35;82.69
70954;BME280;58618;47.490;8.736;2023-04-08T08:04:24;96889.72;;;11.02;78.31
70954;BME280;58618;47.490;8.736;2023-04-08T08:07:12;96905.38;;;11.16;77.01
70954;BME280;58618;47.490;8.736;2023-04-08T08:10:00;96908.13;;;11.40;74.71
70954;BME280;58618;47.490;8.736;2023-04-08T08:12:48;96909.41;;;11.37;74.80
70954;BME280;58618;47.490;8.736;2023-04-08T08:15:35;96903.81;;;10.51;77.42
70954;BME280;58618;47.490;8.736;2023-04-08T08:18:23;96912.28;;;10.77;76.57
70954;BME280;58618;47.490;8.736;2023-04-08T08:21:10;96914.72;;;11.12;76.01
70954;BME280;58618;47.490;8.736;2023-04-08T08:23:58;96908.94;;;11.30;74.81
70954;BME280;58618;47.490;8.736;2023-04-08T08:26:47;96902.88;;;11.01;75.54
70954;BME280;58618;47.490;8.736;2023-04-08T08:29:34;96912.06;;;11.27;75.80
70954;BME280;58618;47.490;8.736;2023-04-08T08:32:22;96915.94;;;11.74;71.75
70954;BME280;58618;47.490;8.736;2023-04-08T08:35:09;96916.53;;;11.61;71.82
70954;BME280;58618;47.490;8.736;2023-04-08T08:37:56;96921.13;;;10.45;76.86
70954;BME280;58618;47.490;8.736;2023-04-08T08:40:44;96916.44;;;10.47;78.51
70954;BME280;58618;47.490;8.736;2023-04-08T08:43:33;96919.03;;;10.47;81.00
70954;BME280;58618;47.490;8.736;2023-04-08T08:46:20;96920.41;;;11.09;77.55
70954;BME280;58618;47.490;8.736;2023-04-08T08:49:08;96926.56;;;11.18;77.69
70954;BME280;58618;47.490;8.736;2023-04-08T08:51:56;96918.25;;;10.57;78.34
70954;BME280;58618;47.490;8.736;2023-04-08T08:54:44;96911.66;;;10.95;75.37
70954;BME280;58618;47.490;8.736;2023-04-08T08:57:32;96920.69;;;11.02;74.25
70954;BME280;58618;47.490;8.736;2023-04-08T09:00:31;96927.66;;;11.02;74.85
70954;BME280;58618;47.490;8.736;2023-04-08T09:03:20;96929.34;;;10.63;77.26
70954;BME280;58618;47.490;8.736;2023-04-08T09:06:07;96937.09;;;10.42;78.73
70954;BME280;58618;47.490;8.736;2023-04-08T09:08:55;96922.06;;;10.75;75.28
70954;BME280;58618;47.490;8.736;2023-04-08T09:11:44;96932.34;;;10.90;74.11
70954;BME280;58618;47.490;8.736;2023-04-08T09:14:32;96926.78;;;11.27;73.57
70954;BME280;58618;47.490;8.736;2023-04-08T09:17:31;96932.66;;;11.37;73.69
70954;BME280;58618;47.490;8.736;2023-04-08T09:20:20;96918.72;;;11.38;73.33
70954;BME280;58618;47.490;8.736;2023-04-08T09:23:07;96938.81;;;11.52;72.57
70954;BME280;58618;47.490;8.736;2023-04-08T09:26:03;96932.72;;;11.27;74.07
70954;BME280;58618;47.490;8.736;2023-04-08T09:28:57;96926.19;;;10.76;75.76
70954;BME280;58618;47.490;8.736;2023-04-08T09:31:45;96931.16;;;10.32;80.12
70954;BME280;58618;47.490;8.736;2023-04-08T09:34:34;96923.16;;;10.43;78.53
70954;BME280;58618;47.490;8.736;2023-04-08T09:37:21;96923.31;;;10.92;77.58
70954;BME280;58618;47.490;8.736;2023-04-08T09:40:09;96919.81;;;11.22;73.63
70954;BME280;58618;47.490;8.736;2023-04-08T09:42:59;96928.88;;;10.30;78.09
70954;BME280;58618;47.490;8.736;2023-04-08T09:45:49;96931.94;;;9.82;79.65
70954;BME280;58618;47.490;8.736;2023-04-08T09:48:41;96924.22;;;10.17;79.18
70954;BME280;58618;47.490;8.736;2023-04-08T09:51:39;96928.66;;;11.11;77.76
70954;BME280;58618;47.490;8.736;2023-04-08T09:54:31;96927.81;;;11.31;73.68
70954;BME280;58618;47.490;8.736;2023-04-08T09:57:29;96932.91;;;11.85;72.83
70954;BME280;58618;47.490;8.736;2023-04-08T10:00:21;96921.88;;;12.66;67.82
70954;BME280;58618;47.490;8.736;2023-04-08T10:03:14;96929.91;;;12.41;67.34
70954;BME280;58618;47.490;8.736;2023-04-08T10:06:07;96927.94;;;12.80;71.25
70954;BME280;58618;47.490;8.736;2023-04-08T10:08:57;96905.25;;;12.96;68.39
70954;BME280;58618;47.490;8.736;2023-04-08T10:11:46;96927.22;;;12.98;64.68
70954;BME280;58618;47.490;8.736;2023-04-08T10:14:34;96929.00;;;13.03;61.51
70954;BME280;58618;47.490;8.736;2023-04-08T10:17:24;96911.41;;;13.24;61.41
70954;BME280;58618;47.490;8.736;2023-04-08T10:20:40;96920.56;;;12.11;63.63
70954;BME280;58618;47.490;8.736;2023-04-08T10:23:52;96925.81;;;12.35;66.16
70954;BME280;58618;47.490;8.736;2023-04-08T10:26:43;96914.13;;;12.66;63.55
70954;BME280;58618;47.490;8.736;2023-04-08T10:29:34;96920.34;;;13.13;60.28
70954;BME280;58618;47.490;8.736;2023-04-08T10:32:27;96913.84;;;12.91;61.97
70954;BME280;58618;47.490;8.736;2023-04-08T10:35:15;96914.84;;;12.95;61.90
70954;BME280;58618;47.490;8.736;2023-04-08T10:38:03;96920.78;;;12.19;65.75
70954;BME280;58618;47.490;8.736;2023-04-08T10:40:50;96922.53;;;12.24;65.51
70954;BME280;58618;47.490;8.736;2023-04-08T10:43:41;96924.34;;;12.23;66.50
70954;BME280;58618;47.490;8.736;2023-04-08T10:46:36;96919.97;;;12.48;66.15
70954;BME280;58618;47.490;8.736;2023-04-08T10:49:31;96915.69;;;12.38;64.89
70954;BME280;58618;47.490;8.736;2023-04-08T10:52:19;96915.25;;;11.97;67.39
70954;BME280;58618;47.490;8.736;2023-04-08T10:55:08;96918.19;;;12.19;64.88
70954;BME280;58618;47.490;8.736;2023-04-08T10:58:04;96915.56;;;12.24;65.03
70954;BME280;58618;47.490;8.736;2023-04-08T11:00:53;96914.09;;;12.13;64.57
70954;BME280;58618;47.490;8.736;2023-04-08T11:03:42;96914.75;;;11.95;64.62
70954;BME280;58618;47.490;8.736;2023-04-08T11:06:29;96911.94;;;11.48;67.05
70954;BME280;58618;47.490;8.736;2023-04-08T11:09:17;96912.06;;;11.71;66.59
70954;BME280;58618;47.490;8.736;2023-04-08T11:12:04;96913.34;;;11.69;67.90
70954;BME280;58618;47.490;8.736;2023-04-08T11:14:52;96909.25;;;11.73;67.98
70954;BME280;58618;47.490;8.736;2023-04-08T11:17:41;96912.84;;;11.72;66.84
70954;BME280;58618;47.490;8.736;2023-04-08T11:20:31;96912.84;;;11.72;66.55
70954;BME280;58618;47.490;8.736;2023-04-08T11:23:19;96912.69;;;11.53;66.60
70954;BME280;58618;47.490;8.736;2023-04-08T11:26:08;96909.31;;;11.58;69.74
70954;BME280;58618;47.490;8.736;2023-04-08T11:28:56;96913.44;;;11.59;68.98
70954;BME280;58618;47.490;8.736;2023-04-08T11:31:43;96908.31;;;11.49;69.36
70954;BME280;58618;47.490;8.736;2023-04-08T11:34:38;96912.22;;;11.46;69.97
70954;BME280;58618;47.490;8.736;2023-04-08T11:37:25;96907.72;;;11.62;68.35
70954;BME280;58618;47.490;8.736;2023-04-08T11:40:19;96897.28;;;11.82;66.74
70954;BME280;58618;47.490;8.736;2023-04-08T11:43:10;96907.72;;;12.01;66.32
70954;BME280;58618;47.490;8.736;2023-04-08T11:45:58;96897.41;;;12.30;64.85
70954;BME280;58618;47.490;8.736;2023-04-08T11:49:13;96905.72;;;12.79;62.42
70954;BME280;58618;47.490;8.736;2023-04-08T11:52:01;96905.47;;;12.76;60.66
70954;BME280;58618;47.490;8.736;2023-04-08T11:54:49;96906.56;;;12.93;60.67
70954;BME280;58618;47.490;8.736;2023-04-08T11:57:36;96905.69;;;13.03;63.01
70954;BME280;58618;47.490;8.736;2023-04-08T12:00:24;96902.81;;;13.04;62.28
70954;BME280;58618;47.490;8.736;2023-04-08T12:03:13;96911.19;;;12.49;66.70
70954;BME280;58618;47.490;8.736;2023-04-08T12:06:00;96868.41;;;12.33;64.41
70954;BME280;58618;47.490;8.736;2023-04-08T12:08:49;96918.59;;;12.32;65.13
70954;BME280;58618;47.490;8.736;2023-04-08T12:11:36;96910.47;;;12.14;67.74
70954;BME280;58618;47.490;8.736;2023-04-08T12:14:24;96912.97;;;11.52;68.96
70954;BME280;58618;47.490;8.736;2023-04-08T12:17:12;96915.34;;;11.38;69.20
70954;BME280;58618;47.490;8.736;2023-04-08T12:19:59;96912.59;;;11.24;70.07
70954;BME280;58618;47.490;8.736;2023-04-08T12:22:47;96908.59;;;10.98;71.97
70954;BME280;58618;47.490;8.736;2023-04-08T12:25:35;96916.56;;;10.96;73.76
70954;BME280;58618;47.490;8.736;2023-04-08T12:28:23;96913.22;;;10.96;73.74
70954;BME280;58618;47.490;8.736;2023-04-08T12:31:11;96910.13;;;10.99;76.16
70954;BME280;58618;47.490;8.736;2023-04-08T12:33:58;96909.06;;;11.05;77.28
70954;BME280;58618;47.490;8.736;2023-04-08T12:36:46;96910.03;;;11.19;75.19
70954;BME280;58618;47.490;8.736;2023-04-08T12:39:34;96908.50;;;11.18;74.19
70954;BME280;58618;47.490;8.736;2023-04-08T12:42:22;96903.22;;;11.38;74.16
70954;BME280;58618;47.490;8.736;2023-04-08T12:45:10;96900.06;;;11.52;74.19
70954;BME280;58618;47.490;8.736;2023-04-08T12:47:58;96899.94;;;11.67;72.44
70954;BME280;58618;47.490;8.736;2023-04-08T12:50:45;96908.50;;;12.01;69.97
70954;BME280;58618;47.490;8.736;2023-04-08T12:53:33;96900.06;;;11.91;69.52
70954;BME280;58618;47.490;8.736;2023-04-08T12:56:20;96912.16;;;11.95;68.87
70954;BME280;58618;47.490;8.736;2023-04-08T12:59:09;96907.88;;;12.14;67.93
70954;BME280;58618;47.490;8.736;2023-04-08T13:01:56;96906.84;;;12.15;66.95
70954;BME280;58618;47.490;8.736;2023-04-08T13:04:44;96911.47;;;11.84;68.12
70954;BME280;58618;47.490;8.736;2023-04-08T13:07:31;96908.53;;;11.96;71.01
70954;BME280;58618;47.490;8.736;2023-04-08T13:10:22;96903.53;;;12.39;66.16
70954;BME280;58618;47.490;8.736;2023-04-08T13:13:09;96913.91;;;12.62;64.61
70954;BME280;58618;47.490;8.736;2023-04-08T13:16:00;96906.97;;;12.58;63.08
70954;BME280;58618;47.490;8.736;2023-04-08T13:18:56;96901.75;;;12.63;64.18
70954;BME280;58618;47.490;8.736;2023-04-08T13:21:43;96905.69;;;12.32;64.39
70954;BME280;58618;47.490;8.736;2023-04-08T13:24:31;96906.34;;;12.66;61.69
70954;BME280;58618;47.490;8.736;2023-04-08T13:27:18;96895.56;;;12.59;59.95
70954;BME280;58618;47.490;8.736;2023-04-08T13:30:07;96888.06;;;12.34;58.39
70954;BME280;58618;47.490;8.736;2023-04-08T13:32:56;96887.72;;;12.40;60.51
70954;BME280;58618;47.490;8.736;2023-04-08T13:35:44;96898.66;;;12.61;61.42
70954;BME280;58618;47.490;8.736;2023-04-08T13:38:32;96888.78;;;12.39;64.16
70954;BME280;58618;47.490;8.736;2023-04-08T13:41:19;96886.53;;;12.56;61.48
70954;BME280;58618;47.490;8.736;2023-04-08T13:44:10;96886.16;;;12.15;65.70
70954;BME280;58618;47.490;8.736;2023-04-08T13:46:57;96894.72;;;12.40;60.82
70954;BME280;58618;47.490;8.736;2023-04-08T13:49:47;96892.13;;;12.16;60.15
70954;BME280;58618;47.490;8.736;2023-04-08T13:52:35;96897.72;;;12.23;59.88
70954;BME280;58618;47.490;8.736;2023-04-08T13:55:23;96899.19;;;12.05;60.29
70954;BME280;58618;47.490;8.736;2023-04-08T13:58:10;96900.34;;;12.18;59.70
70954;BME280;58618;47.490;8.736;2023-04-08T14:00:57;96893.91;;;12.15;59.72
70954;BME280;58618;47.490;8.736;2023-04-08T14:03:48;96900.75;;;12.01;60.93
70954;BME280;58618;47.490;8.736;2023-04-08T14:06:37;96899.34;;;11.80;60.18
70954;BME280;58618;47.490;8.736;2023-04-08T14:09:25;96902.16;;;11.44;61.92
70954;BME280;58618;47.490;8.736;2023-04-08T14:12:12;96897.09;;;11.24;63.60
70954;BME280;58618;47.490;8.736;2023-04-08T14:14:59;96893.84;;;11.48;63.41
70954;BME280;58618;47.490;8.736;2023-04-08T14:17:48;96896.38;;;11.63;62.03
70954;BME280;58618;47.490;8.736;2023-04-08T14:20:36;96892.69;;;11.69;60.75
70954;BME280;58618;47.490;8.736;2023-04-08T14:23:25;96892.22;;;11.62;59.55
70954;BME280;58618;47.490;8.736;2023-04-08T14:26:13;96891.16;;;11.68;61.71
70954;BME280;58618;47.490;8.736;2023-04-08T14:29:02;96895.75;;;11.81;60.32
70954;BME280;58618;47.490;8.736;2023-04-08T14:31:49;96894.41;;;11.44;64.47
70954;BME280;58618;47.490;8.736;2023-04-08T14:34:37;96889.16;;;11.55;62.97
70954;BME280;58618;47.490;8.736;2023-04-08T14:37:25;96895.94;;;11.46;63.12
70954;BME280;58618;47.490;8.736;2023-04-08T14:40:13;96900.72;;;11.23;66.99
70954;BME280;58618;47.490;8.736;2023-04-08T14:43:01;96892.75;;;11.15;65.59
70954;BME280;58618;47.490;8.736;2023-04-08T14:45:48;96904.38;;;11.12;65.81
70954;BME280;58618;47.490;8.736;2023-04-08T14:48:36;96898.59;;;10.71;67.43
70954;BME280;58618;47.490;8.736;2023-04-08T14:51:23;96903.78;;;10.71;68.98
70954;BME280;58618;47.490;8.736;2023-04-08T14:54:11;96905.28;;;10.82;68.22